createdAt,value
2017-11-17T00:00:20.544Z,32.60
2017-11-17T00:02:53.987Z,38.13
2017-11-17T00:05:27.556Z,35.30
2017-11-17T00:08:02.060Z,30.10
2017-11-17T00:10:35.735Z,31.77
2017-11-17T00:13:09.402Z,32.87
2017-11-17T00:15:42.919Z,32.23
2017-11-17T00:18:16.663Z,34.70
2017-11-17T00:20:50.988Z,32.70
2017-11-17T00:23:24.593Z,32.03
2017-11-17T00:25:58.194Z,35.20
2017-11-17T00:28:31.683Z,33.30
2017-11-17T00:31:06.006Z,34.77
2017-11-17T00:33:39.574Z,41.60
2017-11-17T00:36:13.407Z,37.57
2017-11-17T00:38:46.912Z,35.13
2017-11-17T00:41:20.451Z,33.80
2017-11-17T00:43:54.107Z,44.23
2017-11-17T00:46:28.608Z,36.27
2017-11-17T00:49:03.731Z,37.83
2017-11-17T00:51:37.374Z,34.13
2017-11-17T00:54:10.827Z,33.30
2017-11-17T00:56:45.399Z,32.10
2017-11-17T00:59:19.669Z,31.70
2017-11-17T01:01:53.368Z,32.60
2017-11-17T01:04:27.806Z,29.10
2017-11-17T01:07:01.785Z,32.03
2017-11-17T01:09:35.449Z,29.67
2017-11-17T01:12:09.090Z,38.47
2017-11-17T01:14:42.851Z,41.70
2017-11-17T01:17:16.650Z,32.20
2017-11-17T01:19:50.212Z,33.73
2017-11-17T01:22:23.803Z,38.70
2017-11-17T01:24:57.459Z,46.03
2017-11-17T01:27:31.065Z,33.03
2017-11-17T01:30:04.527Z,34.17
2017-11-17T01:32:38.143Z,34.43
2017-11-17T01:35:13.012Z,33.70
2017-11-17T01:37:46.691Z,35.83
2017-11-17T01:40:20.365Z,35.70
2017-11-17T01:42:54.736Z,31.23
2017-11-17T01:45:28.421Z,32.87
2017-11-17T01:48:02.112Z,33.97
2017-11-17T01:50:35.670Z,34.80
2017-11-17T01:53:09.412Z,39.47
2017-11-17T01:55:43.228Z,31.20
2017-11-17T01:58:16.795Z,30.10
2017-11-17T02:00:50.543Z,31.30
2017-11-17T02:03:24.236Z,32.30
2017-11-17T02:05:57.731Z,37.60
2017-11-17T02:08:31.438Z,30.47
2017-11-17T02:11:05.036Z,34.20
2017-11-17T02:13:39.246Z,39.90
2017-11-17T02:16:12.831Z,34.40
2017-11-17T02:18:47.271Z,38.13
2017-11-17T02:21:20.976Z,34.30
2017-11-17T02:23:54.481Z,30.27
2017-11-17T02:26:27.971Z,36.03
2017-11-17T02:29:02.279Z,32.87
2017-11-17T02:31:35.893Z,38.07
2017-11-17T02:34:10.438Z,34.70
2017-11-17T02:36:44.022Z,33.87
2017-11-17T02:39:18.545Z,31.23
2017-11-17T02:41:52.242Z,29.67
2017-11-17T02:44:25.825Z,35.33
2017-11-17T02:47:00.637Z,34.07
2017-11-17T02:49:34.283Z,32.53
2017-11-17T02:52:07.975Z,34.00
2017-11-17T02:54:41.571Z,32.30
2017-11-17T02:57:15.275Z,31.33
2017-11-17T02:59:48.880Z,33.13
2017-11-17T03:02:22.474Z,35.20
2017-11-17T03:04:56.075Z,31.90
2017-11-17T03:07:30.270Z,34.97
2017-11-17T03:10:03.894Z,30.80
2017-11-17T03:12:37.468Z,35.33
2017-11-17T03:15:11.069Z,32.87
2017-11-17T03:17:44.796Z,30.90
2017-11-17T03:20:18.498Z,30.50
2017-11-17T03:22:52.199Z,26.90
2017-11-17T03:25:25.806Z,32.20
2017-11-17T03:27:59.380Z,29.80
2017-11-17T03:30:33.170Z,28.80
2017-11-17T03:33:06.711Z,34.87
2017-11-17T03:35:40.306Z,28.03
2017-11-17T03:38:13.907Z,31.20
2017-11-17T03:40:47.714Z,36.43
2017-11-17T03:43:21.223Z,37.67
2017-11-17T03:48:24.011Z,34.53
2017-11-17T03:50:57.819Z,36.57
2017-11-17T03:53:31.518Z,37.57
2017-11-17T03:56:05.178Z,38.07
2017-11-17T03:58:39.230Z,37.97
2017-11-17T04:01:12.935Z,32.80
2017-11-17T04:03:46.946Z,41.70
2017-11-17T04:06:20.619Z,35.27
2017-11-17T04:08:54.216Z,34.03
2017-11-17T04:11:27.764Z,36.57
2017-11-17T04:14:01.247Z,40.27
2017-11-17T04:16:34.819Z,38.67
2017-11-17T04:19:08.418Z,33.87
2017-11-17T04:21:42.050Z,34.50
2017-11-17T04:24:15.854Z,34.67
2017-11-17T04:26:49.460Z,35.37
2017-11-17T04:29:22.959Z,36.30
2017-11-17T04:31:56.554Z,33.97
2017-11-17T04:34:30.258Z,30.50
2017-11-17T04:37:03.935Z,32.30
2017-11-17T04:39:37.577Z,29.57
2017-11-17T04:42:11.147Z,37.33
2017-11-17T04:44:44.764Z,32.77
2017-11-17T04:47:18.277Z,33.67
2017-11-17T04:49:52.646Z,37.73
2017-11-17T04:52:26.388Z,33.50
2017-11-17T04:54:59.882Z,34.83
2017-11-17T04:57:33.595Z,41.00
2017-11-17T05:00:07.295Z,36.10
2017-11-17T05:02:41.100Z,31.10
2017-11-17T05:05:14.902Z,31.83
2017-11-17T05:07:48.607Z,33.40
2017-11-17T05:10:22.106Z,31.57
2017-11-17T05:12:56.522Z,29.10
2017-11-17T05:15:30.131Z,34.03
2017-11-17T05:18:03.725Z,35.33
2017-11-17T05:20:37.222Z,40.10
2017-11-17T05:23:10.823Z,29.93
2017-11-17T05:25:44.386Z,35.60
2017-11-17T05:28:18.235Z,34.10
2017-11-17T05:30:51.934Z,37.03
2017-11-17T05:33:25.542Z,35.13
2017-11-17T05:35:59.231Z,31.70
2017-11-17T05:38:33.730Z,35.50
2017-11-17T05:41:08.182Z,34.90
2017-11-17T05:43:41.775Z,35.00
2017-11-17T05:46:15.330Z,40.90
2017-11-17T05:48:49.050Z,35.93
2017-11-17T05:51:22.803Z,41.80
2017-11-17T05:53:57.310Z,39.80
2017-11-17T05:56:30.846Z,37.67
2017-11-17T05:59:04.613Z,33.80
2017-11-17T06:01:38.317Z,36.07
2017-11-17T06:04:11.975Z,41.90
2017-11-17T06:06:46.134Z,42.20
2017-11-17T06:09:19.739Z,38.60
2017-11-17T06:11:53.305Z,47.07
2017-11-17T06:14:26.934Z,39.33
2017-11-17T06:17:01.255Z,36.73
2017-11-17T06:19:34.980Z,37.10
2017-11-17T06:22:09.354Z,38.60
2017-11-17T06:24:43.873Z,40.67
2017-11-17T06:27:17.602Z,39.53
2017-11-17T06:29:51.102Z,36.27
2017-11-17T06:32:24.704Z,35.20
2017-11-17T06:34:58.243Z,40.33
2017-11-17T06:37:31.854Z,40.80
2017-11-17T06:40:06.226Z,39.80
2017-11-17T06:42:39.823Z,44.90
2017-11-17T06:45:13.391Z,37.03
2017-11-17T06:47:47.026Z,35.60
2017-11-17T06:50:21.446Z,38.53
2017-11-17T06:52:55.065Z,34.40
2017-11-17T06:55:29.471Z,39.93
2017-11-17T06:58:02.961Z,40.70
2017-11-17T07:00:36.531Z,39.70
2017-11-17T07:03:10.115Z,36.00
2017-11-17T07:05:43.683Z,40.20
2017-11-17T07:08:17.377Z,32.27
2017-11-17T07:10:51.070Z,35.07
2017-11-17T07:13:25.391Z,39.00
2017-11-17T07:15:59.096Z,42.10
2017-11-17T07:18:32.594Z,37.60
2017-11-17T07:21:06.151Z,33.53
2017-11-17T07:23:39.790Z,41.73
2017-11-17T07:26:13.390Z,39.17
2017-11-17T07:28:46.975Z,39.10
2017-11-17T07:31:20.693Z,33.90
2017-11-17T07:33:54.783Z,42.83
2017-11-17T07:36:28.724Z,37.67
2017-11-17T07:39:02.253Z,34.50
2017-11-17T07:41:35.918Z,41.63
2017-11-17T07:44:09.527Z,37.47
2017-11-17T07:46:43.223Z,39.23
2017-11-17T07:49:16.814Z,39.60
2017-11-17T07:51:50.404Z,41.60
2017-11-17T07:54:24.133Z,37.53
2017-11-17T07:56:57.591Z,28.13
2017-11-17T07:59:31.163Z,33.97
2017-11-17T08:02:05.535Z,34.73
2017-11-17T08:04:39.838Z,34.80
2017-11-17T08:07:13.644Z,37.67
2017-11-17T08:09:47.378Z,30.93
2017-11-17T08:12:20.978Z,26.17
2017-11-17T08:14:54.778Z,28.60
2017-11-17T08:20:36.135Z,28.47
2017-11-17T08:23:09.836Z,26.60
2017-11-17T08:25:43.279Z,33.57
2017-11-17T08:28:16.882Z,30.77
2017-11-17T08:30:50.346Z,22.43
2017-11-17T08:33:23.987Z,29.00
2017-11-17T08:35:58.312Z,27.10
2017-11-17T08:38:32.101Z,30.53
2017-11-17T08:41:05.638Z,28.70
2017-11-17T08:43:39.306Z,32.00
2017-11-17T08:46:12.818Z,27.33
2017-11-17T08:48:46.271Z,29.80
2017-11-17T08:51:19.804Z,41.97
2017-11-17T08:53:53.402Z,29.00
2017-11-17T08:56:27.206Z,26.40
2017-11-17T08:59:01.766Z,28.00
2017-11-17T09:01:35.541Z,29.43
2017-11-17T09:04:09.211Z,28.00
2017-11-17T09:06:43.658Z,27.80
2017-11-17T09:09:18.079Z,32.63
2017-11-17T09:11:51.579Z,24.70
2017-11-17T09:14:25.184Z,27.80
2017-11-17T09:16:58.778Z,25.63
2017-11-17T09:19:32.382Z,28.10
2017-11-17T09:22:05.979Z,24.57
2017-11-17T09:24:39.682Z,30.03
2017-11-17T09:27:13.286Z,29.43
2017-11-17T09:29:46.998Z,29.50
2017-11-17T09:32:21.512Z,32.70
2017-11-17T09:34:55.174Z,39.77
2017-11-17T09:37:29.344Z,46.17
2017-11-17T09:40:03.084Z,50.27
2017-11-17T09:42:36.748Z,41.03
2017-11-17T09:45:10.388Z,43.40
2017-11-17T09:47:44.002Z,42.83
2017-11-17T09:50:17.698Z,40.30
2017-11-17T09:52:51.444Z,52.77
2017-11-17T09:55:24.948Z,41.17
2017-11-17T09:57:58.646Z,41.03
2017-11-17T10:00:32.346Z,47.90
2017-11-17T10:03:05.847Z,39.40
2017-11-17T10:05:39.549Z,41.80
2017-11-17T10:08:13.111Z,41.10
2017-11-17T10:10:46.749Z,47.27
2017-11-17T10:13:20.259Z,46.80
2017-11-17T10:15:54.778Z,44.50
2017-11-17T10:18:28.347Z,47.90
2017-11-17T10:21:01.863Z,50.37
2017-11-17T10:23:36.198Z,44.57
2017-11-17T10:26:10.611Z,49.90
2017-11-17T10:28:44.209Z,50.13
2017-11-17T10:31:17.790Z,54.43
2017-11-17T10:33:52.107Z,47.10
2017-11-17T10:36:25.736Z,50.47
2017-11-17T10:38:59.503Z,45.50
2017-11-17T10:41:33.137Z,44.63
2017-11-17T10:44:07.455Z,49.07
2017-11-17T10:46:41.250Z,60.53
2017-11-17T10:49:14.830Z,56.47
2017-11-17T10:51:48.634Z,51.53
2017-11-17T10:54:22.374Z,47.70
2017-11-17T10:56:56.890Z,40.27
2017-11-17T10:59:33.305Z,51.60
2017-11-17T11:02:07.062Z,47.53
2017-11-17T11:04:41.442Z,38.77
2017-11-17T11:07:15.211Z,45.60
2017-11-17T11:09:48.859Z,54.80
2017-11-17T11:12:22.596Z,63.23
2017-11-17T11:14:56.603Z,51.20
2017-11-17T11:17:30.436Z,46.73
2017-11-17T11:20:04.015Z,43.50
2017-11-17T11:22:37.510Z,42.60
2017-11-17T11:25:11.211Z,43.83
2017-11-17T11:27:44.707Z,50.90
2017-11-17T11:30:18.195Z,46.43
2017-11-17T11:32:52.507Z,51.50
2017-11-17T11:35:26.330Z,55.10
2017-11-17T11:37:59.915Z,52.93
2017-11-17T11:40:33.739Z,41.37
2017-11-17T11:43:07.467Z,45.20
2017-11-17T11:45:40.983Z,44.47
2017-11-17T11:48:14.575Z,47.00
2017-11-17T11:50:48.115Z,41.93
2017-11-17T11:53:21.690Z,49.97
2017-11-17T11:55:55.222Z,39.27
2017-11-17T11:58:28.935Z,44.67
2017-11-17T12:01:02.650Z,47.90
2017-11-17T12:03:36.444Z,48.10
2017-11-17T12:06:10.019Z,46.10
2017-11-17T12:08:43.650Z,48.70
2017-11-17T12:11:17.153Z,44.83
2017-11-17T12:13:50.751Z,50.97
2017-11-17T12:16:24.355Z,42.50
2017-11-17T12:18:57.918Z,43.60
2017-11-17T12:21:32.374Z,42.60
2017-11-17T12:24:06.894Z,50.37
2017-11-17T12:26:40.600Z,43.73
2017-11-17T12:29:14.918Z,46.13
2017-11-17T12:31:48.467Z,47.30
2017-11-17T12:34:21.994Z,49.87
2017-11-17T12:36:55.519Z,54.90
2017-11-17T12:39:29.207Z,52.50
2017-11-17T12:42:02.818Z,57.83
2017-11-17T12:44:36.326Z,57.07
2017-11-17T12:47:10.227Z,54.70
2017-11-17T12:49:43.722Z,65.00
2017-11-17T12:52:17.366Z,57.53
2017-11-17T12:54:51.075Z,55.13
2017-11-17T12:57:24.530Z,52.60
2017-11-17T12:59:58.831Z,56.90
2017-11-17T13:02:32.954Z,52.37
2017-11-17T13:05:06.559Z,53.93
2017-11-17T13:07:40.054Z,57.53
2017-11-17T13:10:13.858Z,60.40
2017-11-17T13:12:47.464Z,70.67
2017-11-17T13:15:21.063Z,69.17
2017-11-17T13:17:55.483Z,58.80
2017-11-17T13:20:28.966Z,63.03
2017-11-17T13:23:02.582Z,66.10
2017-11-17T13:25:36.331Z,60.93
2017-11-17T13:28:10.502Z,72.80
2017-11-17T13:30:44.203Z,69.43
2017-11-17T13:33:17.685Z,64.03
2017-11-17T13:35:51.303Z,63.27
2017-11-17T13:38:25.600Z,62.40
2017-11-17T13:40:59.231Z,71.33
2017-11-17T13:43:33.538Z,63.50
2017-11-17T13:46:07.343Z,64.80
2017-11-17T13:48:41.023Z,73.37
2017-11-17T13:51:14.651Z,68.37
2017-11-17T13:53:48.910Z,69.53
2017-11-17T13:56:23.231Z,80.70
2017-11-17T13:58:56.964Z,76.47
2017-11-17T14:01:30.630Z,87.83
2017-11-17T14:04:04.143Z,81.23
2017-11-17T14:06:37.999Z,77.60
2017-11-17T14:09:12.007Z,76.93
2017-11-17T14:11:45.711Z,73.40
2017-11-17T14:14:19.510Z,70.93
2017-11-17T14:16:53.114Z,79.80
2017-11-17T14:19:27.606Z,84.47
2017-11-17T14:22:01.306Z,81.97
2017-11-17T14:24:35.047Z,68.70
2017-11-17T14:27:08.757Z,94.53
2017-11-17T14:29:42.453Z,77.10
2017-11-17T14:32:16.123Z,84.83
2017-11-17T14:34:49.606Z,82.53
2017-11-17T14:37:23.226Z,87.30
2017-11-17T14:39:56.815Z,78.10
2017-11-17T14:42:30.454Z,69.27
2017-11-17T14:45:04.055Z,76.67
2017-11-17T14:47:37.659Z,77.13
2017-11-17T14:50:12.178Z,75.67
2017-11-17T14:52:45.881Z,76.00
2017-11-17T14:55:19.484Z,79.60
2017-11-17T14:57:53.003Z,92.63
2017-11-17T15:00:26.568Z,92.97
2017-11-17T15:03:00.274Z,69.70
2017-11-17T15:05:34.635Z,90.90
2017-11-17T15:08:08.510Z,79.47
2017-11-17T15:10:42.058Z,79.63
2017-11-17T15:13:16.136Z,87.90
2017-11-17T15:15:49.938Z,92.73
2017-11-17T15:18:23.633Z,78.43
2017-11-17T15:20:57.195Z,93.33
2017-11-17T15:23:30.790Z,78.07
2017-11-17T15:26:04.498Z,90.67
2017-11-17T15:28:38.239Z,84.97
2017-11-17T15:31:11.811Z,99.23
2017-11-17T15:33:45.951Z,86.07
2017-11-17T15:36:19.394Z,97.23
2017-11-17T15:38:53.050Z,82.07
2017-11-17T15:41:26.653Z,92.13
2017-11-17T15:44:01.055Z,83.87
2017-11-17T15:46:34.780Z,89.97
2017-11-17T15:49:08.807Z,101.83
2017-11-17T15:51:43.518Z,87.57
2017-11-17T15:54:17.010Z,82.23
2017-11-17T15:56:50.719Z,95.33
2017-11-17T15:59:24.486Z,89.97
2017-11-17T16:01:58.075Z,99.63
2017-11-17T16:04:32.646Z,88.60
2017-11-17T16:07:06.235Z,88.53
2017-11-17T16:09:40.562Z,92.97
2017-11-17T16:12:14.339Z,87.83
2017-11-17T16:14:47.978Z,87.73
2017-11-17T16:17:21.570Z,88.47
2017-11-17T16:19:55.143Z,91.90
2017-11-17T16:22:28.781Z,87.37
2017-11-17T16:25:02.784Z,94.37
2017-11-17T16:27:36.482Z,95.93
2017-11-17T16:30:10.190Z,78.67
2017-11-17T16:32:43.746Z,101.10
2017-11-17T16:35:17.257Z,97.87
2017-11-17T16:37:50.790Z,93.17
2017-11-17T16:40:24.470Z,87.20
2017-11-17T16:42:58.091Z,84.23
2017-11-17T16:45:31.695Z,94.40
2017-11-17T16:48:05.498Z,88.33
2017-11-17T16:50:39.154Z,83.67
2017-11-17T16:53:12.907Z,85.87
2017-11-17T16:55:47.306Z,83.67
2017-11-17T16:58:20.926Z,93.67
2017-11-17T17:00:54.494Z,86.17
2017-11-17T17:03:28.023Z,81.03
2017-11-17T17:06:01.611Z,88.80
2017-11-17T17:08:35.227Z,82.63
2017-11-17T17:11:08.955Z,87.97
2017-11-17T17:13:42.433Z,93.03
2017-11-17T17:16:16.026Z,93.30
2017-11-17T17:18:50.564Z,70.50
2017-11-17T17:21:24.055Z,73.33
2017-11-17T17:23:57.763Z,76.93
2017-11-17T17:26:32.378Z,71.37
2017-11-17T17:29:06.798Z,88.03
2017-11-17T17:31:40.606Z,75.60
2017-11-17T17:34:14.206Z,86.13
2017-11-17T17:36:47.679Z,90.87
2017-11-17T17:39:22.030Z,79.03
2017-11-17T17:41:55.731Z,82.77
2017-11-17T17:44:29.187Z,85.33
2017-11-17T17:47:03.643Z,68.17
2017-11-17T17:49:37.345Z,69.20
2017-11-17T17:52:11.151Z,76.70
2017-11-17T17:54:45.466Z,65.30
2017-11-17T17:57:18.967Z,85.33
2017-11-17T17:59:52.459Z,74.73
2017-11-17T18:02:26.238Z,81.30
2017-11-17T18:04:59.971Z,74.77
2017-11-17T18:07:33.778Z,71.43
2017-11-17T18:10:08.307Z,73.03
2017-11-17T18:12:41.859Z,74.73
2017-11-17T18:15:15.560Z,65.93
2017-11-17T18:17:49.169Z,77.77
2017-11-17T18:20:22.807Z,62.60
2017-11-17T18:22:56.411Z,61.93
2017-11-17T18:25:29.973Z,64.90
2017-11-17T18:28:04.220Z,66.33
2017-11-17T18:30:38.611Z,53.47
2017-11-17T18:33:12.149Z,58.60
2017-11-17T18:35:46.381Z,58.80
2017-11-17T18:38:19.995Z,68.90
2017-11-17T18:40:53.448Z,52.33
2017-11-17T18:43:26.926Z,72.33
2017-11-17T18:46:00.418Z,61.73
2017-11-17T18:48:34.080Z,65.90
2017-11-17T18:51:08.446Z,66.87
2017-11-17T18:53:42.063Z,63.50
2017-11-17T18:56:15.681Z,60.27
2017-11-17T18:58:50.229Z,58.57
2017-11-17T19:01:23.811Z,59.67
2017-11-17T19:03:57.636Z,60.53
2017-11-17T19:06:31.176Z,58.93
2017-11-17T19:09:05.498Z,57.00
2017-11-17T19:11:39.031Z,54.97
2017-11-17T19:14:12.648Z,61.60
2017-11-17T19:16:46.471Z,57.10
2017-11-17T19:19:20.197Z,49.63
2017-11-17T19:21:53.833Z,53.27
2017-11-17T19:24:27.444Z,54.90
2017-11-17T19:27:00.880Z,50.33
2017-11-17T19:29:34.390Z,50.77
2017-11-17T19:32:07.826Z,50.30
2017-11-17T19:34:41.475Z,41.87
2017-11-17T19:37:14.915Z,51.90
2017-11-17T19:39:48.449Z,48.93
2017-11-17T19:42:22.094Z,47.13
2017-11-17T19:44:55.627Z,50.63
2017-11-17T19:47:29.198Z,53.97
2017-11-17T19:50:02.850Z,46.07
2017-11-17T19:52:36.481Z,49.63
2017-11-17T19:55:10.131Z,38.93
2017-11-17T19:57:43.638Z,40.50
2017-11-17T20:00:17.287Z,42.33
2017-11-17T20:02:50.802Z,40.93
2017-11-17T20:05:24.331Z,36.83
2017-11-17T20:07:57.890Z,36.73
2017-11-17T20:10:31.403Z,36.93
2017-11-17T20:13:04.936Z,37.53
2017-11-17T20:15:39.225Z,26.63
2017-11-17T20:18:13.430Z,32.10
2017-11-17T20:20:47.018Z,31.60
2017-11-17T20:23:20.525Z,26.67
2017-11-17T20:25:54.191Z,31.37
2017-11-17T20:28:28.553Z,29.13
2017-11-17T20:31:02.783Z,32.73
2017-11-17T20:33:36.338Z,38.70
2017-11-17T20:36:09.911Z,30.37
2017-11-17T20:38:43.579Z,26.37
2017-11-17T20:41:17.106Z,31.00
2017-11-17T20:43:51.399Z,24.50
2017-11-17T20:46:25.074Z,26.33
2017-11-17T20:48:58.583Z,23.10
2017-11-17T20:51:32.131Z,23.80
2017-11-17T20:54:05.720Z,27.33
2017-11-17T20:56:39.178Z,20.50
2017-11-17T20:59:12.676Z,19.40
2017-11-17T21:01:46.223Z,18.80
2017-11-17T21:04:20.495Z,20.50
2017-11-17T21:06:53.999Z,19.47
2017-11-17T21:09:27.441Z,19.90
2017-11-17T21:12:00.983Z,19.83
2017-11-17T21:14:34.415Z,19.47
2017-11-17T21:17:08.067Z,20.70
2017-11-17T21:19:41.570Z,17.40
2017-11-17T21:22:15.230Z,18.30
2017-11-17T21:24:49.622Z,18.13
2017-11-17T21:27:23.274Z,18.37
2017-11-17T21:29:56.714Z,18.03
2017-11-17T21:32:30.923Z,34.17
2017-11-17T21:35:05.239Z,27.17
2017-11-17T21:37:38.788Z,17.37
2017-11-17T21:40:12.223Z,14.30
2017-11-17T21:42:45.873Z,18.20
2017-11-17T21:45:19.414Z,18.23
2017-11-17T21:47:52.970Z,16.80
2017-11-17T21:50:27.267Z,17.80
2017-11-17T21:53:01.494Z,25.63
2017-11-17T21:55:34.947Z,16.93
2017-11-17T21:58:08.491Z,19.93
2017-11-17T22:00:42.705Z,23.70
2017-11-17T22:03:16.919Z,20.43
2017-11-17T22:05:51.123Z,16.40
2017-11-17T22:08:24.658Z,16.37
2017-11-17T22:10:58.116Z,20.70
2017-11-17T22:13:31.778Z,16.83
2017-11-17T22:16:05.296Z,18.33
2017-11-17T22:18:38.947Z,19.47
2017-11-17T22:21:12.455Z,25.50
2017-11-17T22:23:46.050Z,21.10
2017-11-17T22:26:19.686Z,22.93
2017-11-17T22:28:53.342Z,26.30
2017-11-17T22:31:27.052Z,30.30
2017-11-17T22:34:00.562Z,23.90
2017-11-17T22:36:34.028Z,21.27
2017-11-17T22:39:08.434Z,18.00
2017-11-17T22:41:42.114Z,19.73
2017-11-17T22:44:15.636Z,22.13
2017-11-17T22:46:49.282Z,26.07
2017-11-17T22:49:22.994Z,21.73
2017-11-17T22:51:56.546Z,20.40
2017-11-17T22:54:30.194Z,16.63
2017-11-17T22:57:04.522Z,22.93
2017-11-17T22:59:38.208Z,22.03
2017-11-17T23:02:11.763Z,24.87
2017-11-17T23:04:45.359Z,21.37
2017-11-17T23:07:18.843Z,25.93
2017-11-17T23:09:52.605Z,27.53
2017-11-17T23:12:26.307Z,32.13
2017-11-17T23:15:00.010Z,29.33
2017-11-17T23:17:33.626Z,24.13
2017-11-17T23:20:07.323Z,23.43
2017-11-17T23:22:40.872Z,24.77
2017-11-17T23:25:14.520Z,29.00
2017-11-17T23:27:48.031Z,22.80
2017-11-17T23:30:21.667Z,20.03
2017-11-17T23:32:55.302Z,22.00
2017-11-17T23:35:29.519Z,24.03
2017-11-17T23:38:03.048Z,19.53
2017-11-17T23:40:36.703Z,17.63
2017-11-17T23:43:10.143Z,20.17
2017-11-17T23:45:44.439Z,16.03
2017-11-17T23:48:18.661Z,19.77
2017-11-17T23:50:52.214Z,16.43
2017-11-17T23:53:25.734Z,20.53
2017-11-17T23:55:59.962Z,21.60
2017-11-17T23:58:34.070Z,21.30
